createdAt,value
2018-05-21T00:02:24.853Z,96981.73
2018-05-21T00:04:52.275Z,96982.02
2018-05-21T00:07:19.802Z,96982.55
2018-05-21T00:09:47.201Z,96984.70
2018-05-21T00:12:14.679Z,96986.77
2018-05-21T00:14:42.185Z,96980.02
2018-05-21T00:17:09.700Z,96976.96
2018-05-21T00:22:09.736Z,96978.97
2018-05-21T00:24:37.163Z,96983.47
2018-05-21T00:27:04.660Z,96986.64
2018-05-21T00:29:32.798Z,96981.68
2018-05-21T00:32:00.281Z,96978.09
2018-05-21T00:34:27.714Z,96976.45
2018-05-21T00:36:55.319Z,96981.55
2018-05-21T00:39:22.719Z,96977.66
2018-05-21T00:41:50.788Z,96975.44
2018-05-21T00:44:18.301Z,96979.12
2018-05-21T00:46:45.741Z,96976.42
2018-05-21T00:49:13.243Z,96982.77
2018-05-21T00:51:40.730Z,96977.47
2018-05-21T00:54:08.190Z,96979.28
2018-05-21T00:56:35.637Z,96983.45
2018-05-21T00:59:03.096Z,96984.28
2018-05-21T01:01:30.838Z,96980.64
2018-05-21T01:03:58.210Z,96975.00
2018-05-21T01:06:25.639Z,96975.20
2018-05-21T01:08:53.127Z,96974.50
2018-05-21T01:11:20.536Z,96976.02
2018-05-21T01:13:48.060Z,96984.33
2018-05-21T01:16:15.512Z,96983.02
2018-05-21T01:18:43.194Z,96979.05
2018-05-21T01:21:10.703Z,96985.40
2018-05-21T01:23:38.123Z,96982.89
2018-05-21T01:26:06.449Z,96976.55
2018-05-21T01:28:33.851Z,96985.66
2018-05-21T01:31:01.312Z,96980.98
2018-05-21T01:33:28.713Z,96977.66
2018-05-21T01:35:59.802Z,96974.53
2018-05-21T01:38:27.225Z,96979.22
2018-05-21T01:40:54.661Z,96971.84
2018-05-21T01:43:22.072Z,96979.72
2018-05-21T01:45:49.486Z,96983.53
2018-05-21T01:48:17.045Z,96976.27
2018-05-21T01:50:44.484Z,96975.41
2018-05-21T01:53:11.963Z,96975.80
2018-05-21T01:55:39.443Z,96976.92
2018-05-21T01:58:06.909Z,96977.97
2018-05-21T02:00:34.390Z,96973.13
2018-05-21T02:03:02.552Z,96981.05
2018-05-21T02:05:29.949Z,96977.64
2018-05-21T02:07:57.400Z,96979.30
2018-05-21T02:10:24.842Z,96972.69
2018-05-21T02:12:52.272Z,96969.92
2018-05-21T02:15:19.664Z,96973.93
2018-05-21T02:17:47.067Z,96962.94
2018-05-21T02:20:14.678Z,96967.05
2018-05-21T02:22:42.134Z,96962.64
2018-05-21T02:25:10.607Z,96964.73
2018-05-21T02:27:38.058Z,96967.95
2018-05-21T02:30:05.486Z,96962.72
2018-05-21T02:32:33.646Z,96960.75
2018-05-21T02:35:01.124Z,96965.09
2018-05-21T02:37:28.562Z,96966.05
2018-05-21T02:39:56.811Z,96967.44
2018-05-21T02:42:24.304Z,96971.47
2018-05-21T02:44:51.747Z,96962.45
2018-05-21T02:47:19.143Z,96960.41
2018-05-21T02:49:46.554Z,96960.56
2018-05-21T02:52:14.010Z,96953.19
2018-05-21T02:54:44.891Z,96956.83
2018-05-21T02:57:12.447Z,96961.71
2018-05-21T02:59:39.928Z,96957.97
2018-05-21T03:02:07.386Z,96956.73
2018-05-21T03:04:34.857Z,96955.55
2018-05-21T03:07:02.255Z,96953.80
2018-05-21T03:09:29.788Z,96959.83
2018-05-21T03:11:58.077Z,96968.09
2018-05-21T03:14:25.487Z,96964.14
2018-05-21T03:16:52.943Z,96964.88
2018-05-21T03:19:20.358Z,96968.38
2018-05-21T03:21:47.838Z,96972.80
2018-05-21T03:24:15.235Z,96972.01
2018-05-21T03:26:42.643Z,96971.91
2018-05-21T03:29:10.079Z,96970.44
2018-05-21T03:31:38.337Z,96972.22
2018-05-21T03:34:05.755Z,96975.13
2018-05-21T03:36:33.239Z,96971.95
2018-05-21T03:39:00.702Z,96978.55
2018-05-21T03:41:28.778Z,96976.33
2018-05-21T03:43:57.495Z,96984.25
2018-05-21T03:46:24.914Z,96978.64
2018-05-21T03:48:52.397Z,96980.42
2018-05-21T03:51:19.840Z,96978.64
2018-05-21T03:53:47.308Z,96984.98
2018-05-21T03:56:16.711Z,96982.26
2018-05-21T03:58:55.857Z,96980.11
2018-05-21T04:01:34.992Z,96990.34
2018-05-21T04:04:02.409Z,96983.73
2018-05-21T04:06:29.893Z,96987.05
2018-05-21T04:08:57.341Z,96985.91
2018-05-21T04:11:24.836Z,96990.72
2018-05-21T04:13:53.483Z,96991.56
2018-05-21T04:16:21.091Z,96988.58
2018-05-21T04:18:48.509Z,96982.77
2018-05-21T04:21:15.943Z,96985.53
2018-05-21T04:23:43.336Z,96983.03
2018-05-21T04:26:14.619Z,96985.19
2018-05-21T04:28:42.054Z,96986.86
2018-05-21T04:31:09.529Z,96990.47
2018-05-21T04:33:36.932Z,96992.94
2018-05-21T04:36:05.586Z,96994.06
2018-05-21T04:38:33.066Z,96995.49
2018-05-21T04:41:00.588Z,96994.05
2018-05-21T04:43:28.199Z,96999.48
2018-05-21T04:45:55.597Z,96997.83
2018-05-21T04:48:23.986Z,96996.51
2018-05-21T04:50:51.501Z,97000.81
2018-05-21T04:53:18.931Z,97005.47
2018-05-21T04:55:46.381Z,97003.16
2018-05-21T04:58:13.801Z,97007.19
2018-05-21T05:00:42.407Z,97010.79
2018-05-21T05:03:09.879Z,97012.22
2018-05-21T05:05:37.348Z,97006.84
2018-05-21T05:08:04.810Z,97006.64
2018-05-21T05:10:32.662Z,97010.23
2018-05-21T05:13:00.067Z,97009.97
2018-05-21T05:15:27.483Z,97011.98
2018-05-21T05:17:54.929Z,97005.56
2018-05-21T05:20:23.324Z,97011.13
2018-05-21T05:22:50.780Z,97008.41
2018-05-21T05:25:18.437Z,97008.27
2018-05-21T05:27:45.849Z,97012.13
2018-05-21T05:30:13.345Z,97008.80
2018-05-21T05:32:43.175Z,97002.88
2018-05-21T05:35:10.653Z,97005.75
2018-05-21T05:37:38.111Z,97007.88
2018-05-21T05:40:05.634Z,97001.61
2018-05-21T05:42:33.120Z,97003.02
2018-05-21T05:45:00.578Z,97002.11
2018-05-21T05:47:27.987Z,97003.97
2018-05-21T05:49:55.428Z,97001.09
2018-05-21T05:52:22.833Z,97006.37
2018-05-21T05:54:50.265Z,97006.30
2018-05-21T05:57:17.669Z,97010.12
2018-05-21T05:59:45.317Z,97002.05
2018-05-21T06:02:12.754Z,97000.66
2018-05-21T06:04:41.029Z,97005.86
2018-05-21T06:07:08.442Z,97007.55
2018-05-21T06:09:35.883Z,97010.20
2018-05-21T06:12:03.283Z,96998.20
2018-05-21T06:14:30.686Z,97004.67
2018-05-21T06:16:59.063Z,97004.75
2018-05-21T06:19:26.603Z,97001.70
2018-05-21T06:21:54.078Z,96999.47
2018-05-21T06:24:21.535Z,96999.56
2018-05-21T06:26:48.993Z,96994.00
2018-05-21T06:29:16.432Z,97000.13
2018-05-21T06:31:43.862Z,96994.53
2018-05-21T06:34:11.544Z,96997.68
2018-05-21T06:36:38.981Z,96996.51
2018-05-21T06:39:06.404Z,96995.72
2018-05-21T06:41:33.853Z,96994.48
2018-05-21T06:44:01.284Z,96995.38
2018-05-21T06:46:28.719Z,96997.87
2018-05-21T06:48:56.161Z,96996.69
2018-05-21T06:51:23.615Z,97005.66
2018-05-21T06:53:51.838Z,97005.71
2018-05-21T06:56:19.289Z,97000.78
2018-05-21T06:58:46.747Z,97000.84
2018-05-21T07:01:14.143Z,96996.01
2018-05-21T07:03:41.598Z,96998.13
2018-05-21T07:06:09.056Z,97002.09
2018-05-21T07:08:38.398Z,96995.72
2018-05-21T07:11:08.189Z,96994.88
2018-05-21T07:13:35.616Z,96992.09
2018-05-21T07:16:03.189Z,96994.59
2018-05-21T07:18:30.579Z,96995.39
2018-05-21T07:20:57.978Z,96989.06
2018-05-21T07:23:26.002Z,96992.39
2018-05-21T07:25:54.062Z,96988.16
2018-05-21T07:28:22.473Z,96985.38
2018-05-21T07:30:51.117Z,96991.33
2018-05-21T07:33:18.758Z,96991.98
2018-05-21T07:35:46.227Z,96995.87
2018-05-21T07:38:13.643Z,96984.57
2018-05-21T07:40:41.112Z,96983.67
2018-05-21T07:43:08.551Z,96985.94
2018-05-21T07:45:35.997Z,96986.17
2018-05-21T07:48:03.409Z,96985.80
2018-05-21T07:50:30.889Z,96974.06
2018-05-21T07:52:59.377Z,96978.23
2018-05-21T07:55:27.044Z,96967.22
2018-05-21T07:57:55.639Z,96966.00
2018-05-21T08:00:23.047Z,96960.35
2018-05-21T08:02:51.027Z,96970.62
2018-05-21T08:05:18.526Z,96960.77
2018-05-21T08:07:45.942Z,96957.59
2018-05-21T08:10:13.427Z,96959.31
2018-05-21T08:12:40.876Z,96960.91
2018-05-21T08:15:08.353Z,96959.55
2018-05-21T08:17:35.816Z,96960.05
2018-05-21T08:20:03.230Z,96958.38
2018-05-21T08:22:31.447Z,96958.10
2018-05-21T08:24:58.968Z,96956.77
2018-05-21T08:27:26.355Z,96958.17
2018-05-21T08:29:53.840Z,96961.77
2018-05-21T08:32:21.272Z,96961.14
2018-05-21T08:34:48.676Z,96952.04
2018-05-21T08:37:16.108Z,96947.00
2018-05-21T08:39:43.540Z,96949.91
2018-05-21T08:42:10.980Z,96946.78
2018-05-21T08:44:38.480Z,96945.26
2018-05-21T08:47:05.955Z,96945.78
2018-05-21T08:49:33.424Z,96942.38
2018-05-21T08:52:00.872Z,96933.72
2018-05-21T08:54:30.114Z,96934.05
2018-05-21T08:56:57.543Z,96929.89
2018-05-21T08:59:26.148Z,96933.69
2018-05-21T09:01:53.681Z,96929.28
2018-05-21T09:04:21.122Z,96932.52
2018-05-21T09:06:48.561Z,96930.27
2018-05-21T09:09:16.039Z,96932.48
2018-05-21T09:11:43.546Z,96931.30
2018-05-21T09:14:12.092Z,96922.67
2018-05-21T09:16:39.523Z,96925.72
2018-05-21T09:19:07.971Z,96926.92
2018-05-21T09:21:35.406Z,96923.28
2018-05-21T09:24:02.848Z,96925.44
2018-05-21T09:26:30.317Z,96925.94
2018-05-21T09:28:59.667Z,96920.14
2018-05-21T09:31:27.178Z,96915.66
2018-05-21T09:33:54.537Z,96913.73
2018-05-21T09:36:22.311Z,96910.20
2018-05-21T09:38:49.758Z,96905.48
2018-05-21T09:41:17.174Z,96900.78
2018-05-21T09:43:44.635Z,96898.81
2018-05-21T09:46:12.057Z,96894.78
2018-05-21T09:48:39.723Z,96890.58
2018-05-21T09:51:07.234Z,96893.58
2018-05-21T09:53:34.667Z,96890.20
2018-05-21T09:56:02.145Z,96881.02
2018-05-21T09:58:29.550Z,96877.38
2018-05-21T10:00:57.121Z,96878.68
2018-05-21T10:03:24.577Z,96873.39
2018-05-21T10:05:52.125Z,96872.11
2018-05-21T10:08:19.610Z,96871.73
2018-05-21T10:10:47.064Z,96866.58
2018-05-21T10:13:14.463Z,96869.66
2018-05-21T10:15:41.943Z,96874.77
2018-05-21T10:18:10.152Z,96873.09
2018-05-21T10:20:37.640Z,96879.05
2018-05-21T10:23:05.095Z,96879.72
2018-05-21T10:25:33.888Z,96875.80
2018-05-21T10:28:01.991Z,96873.28
2018-05-21T10:30:29.398Z,96883.77
2018-05-21T10:32:56.929Z,96873.81
2018-05-21T10:35:24.359Z,96870.77
2018-05-21T10:37:51.856Z,96861.88
2018-05-21T10:40:19.334Z,96858.59
2018-05-21T10:42:46.824Z,96855.08
2018-05-21T10:45:14.284Z,96858.79
2018-05-21T10:47:41.735Z,96855.70
2018-05-21T10:50:09.194Z,96845.90
2018-05-21T10:52:36.685Z,96841.74
2018-05-21T10:55:04.152Z,96836.48
2018-05-21T10:57:31.597Z,96838.06
2018-05-21T10:59:59.132Z,96839.02
2018-05-21T11:02:26.556Z,96831.63
2018-05-21T11:04:53.993Z,96836.44
2018-05-21T11:07:21.621Z,96835.64
2018-05-21T11:09:49.209Z,96828.58
2018-05-21T11:12:16.772Z,96828.25
2018-05-21T11:14:44.222Z,96813.47
2018-05-21T11:17:11.708Z,96819.81
2018-05-21T11:19:39.154Z,96817.80
2018-05-21T11:22:06.616Z,96812.95
2018-05-21T11:24:34.358Z,96804.33
2018-05-21T11:27:01.775Z,96804.71
2018-05-21T11:29:29.297Z,96799.16
2018-05-21T11:31:56.843Z,96796.48
2018-05-21T11:34:24.268Z,96801.20
2018-05-21T11:36:51.751Z,96795.23
2018-05-21T11:39:19.204Z,96797.58
2018-05-21T11:41:46.627Z,96794.78
2018-05-21T11:44:14.043Z,96794.31
2018-05-21T11:46:41.454Z,96797.56
2018-05-21T11:49:09.239Z,96796.05
2018-05-21T11:51:36.672Z,96790.13
2018-05-21T11:54:04.171Z,96784.73
2018-05-21T11:56:31.638Z,96789.12
2018-05-21T11:58:59.086Z,96784.52
2018-05-21T12:01:26.563Z,96777.41
2018-05-21T12:03:53.982Z,96774.69
2018-05-21T12:06:21.428Z,96771.92
2018-05-21T12:08:48.898Z,96771.37
2018-05-21T12:11:16.374Z,96772.30
2018-05-21T12:13:43.865Z,96771.16
2018-05-21T12:16:11.320Z,96770.58
2018-05-21T12:18:39.795Z,96772.46
2018-05-21T12:21:07.267Z,96773.72
2018-05-21T12:23:35.489Z,96771.09
2018-05-21T12:26:03.432Z,96767.32
2018-05-21T12:28:30.929Z,96762.39
2018-05-21T12:30:58.388Z,96761.17
2018-05-21T12:33:25.859Z,96756.54
2018-05-21T12:35:53.283Z,96756.27
2018-05-21T12:38:20.862Z,96758.80
2018-05-21T12:40:48.327Z,96755.02
2018-05-21T12:43:15.811Z,96749.73
2018-05-21T12:45:43.229Z,96751.12
2018-05-21T12:48:10.674Z,96755.06
2018-05-21T12:50:38.141Z,96744.64
2018-05-21T12:53:05.540Z,96743.44
2018-05-21T12:55:33.020Z,96739.98
2018-05-21T12:58:00.426Z,96738.95
2018-05-21T13:00:27.813Z,96742.54
2018-05-21T13:02:55.235Z,96740.08
2018-05-21T13:05:23.889Z,96732.53
2018-05-21T13:07:52.126Z,96732.47
2018-05-21T13:10:19.519Z,96736.78
2018-05-21T13:12:46.994Z,96726.73
2018-05-21T13:15:14.559Z,96729.02
2018-05-21T13:17:41.942Z,96725.41
2018-05-21T13:20:09.434Z,96722.49
2018-05-21T13:22:36.892Z,96714.03
2018-05-21T13:25:04.426Z,96708.75
2018-05-21T13:27:31.949Z,96712.74
2018-05-21T13:30:00.894Z,96708.85
2018-05-21T13:32:29.212Z,96696.67
2018-05-21T13:34:56.634Z,96699.20
2018-05-21T13:37:24.295Z,96692.21
2018-05-21T13:39:51.766Z,96693.11
2018-05-21T13:42:19.226Z,96689.72
2018-05-21T13:44:46.631Z,96683.35
2018-05-21T13:47:14.852Z,96681.84
2018-05-21T13:49:42.330Z,96685.48
2018-05-21T13:52:09.817Z,96678.03
2018-05-21T13:54:37.245Z,96682.04
2018-05-21T13:57:04.708Z,96675.27
2018-05-21T13:59:32.951Z,96672.81
2018-05-21T14:02:00.391Z,96667.41
2018-05-21T14:04:27.862Z,96661.99
2018-05-21T14:06:55.317Z,96664.96
2018-05-21T14:09:22.769Z,96660.64
2018-05-21T14:11:50.250Z,96647.37
2018-05-21T14:14:17.670Z,96651.58
2018-05-21T14:16:45.089Z,96645.96
2018-05-21T14:19:12.625Z,96638.59
2018-05-21T14:21:40.081Z,96635.89
2018-05-21T14:24:07.520Z,96632.91
2018-05-21T14:26:35.922Z,96636.77
2018-05-21T14:29:03.383Z,96632.11
2018-05-21T14:31:30.852Z,96631.13
2018-05-21T14:33:59.513Z,96624.89
2018-05-21T14:36:27.976Z,96617.34
2018-05-21T14:38:55.391Z,96611.34
2018-05-21T14:41:22.799Z,96615.22
2018-05-21T14:43:50.388Z,96610.80
2018-05-21T14:46:17.794Z,96612.16
2018-05-21T14:48:45.208Z,96602.24
2018-05-21T14:51:12.653Z,96601.43
2018-05-21T14:53:40.085Z,96600.65
2018-05-21T14:56:07.636Z,96598.72
2018-05-21T14:58:35.092Z,96595.11
2018-05-21T15:01:02.491Z,96595.70
2018-05-21T15:03:29.978Z,96588.63
2018-05-21T15:05:57.371Z,96593.58
2018-05-21T15:08:24.840Z,96586.31
2018-05-21T15:10:52.461Z,96578.39
2018-05-21T15:13:20.008Z,96569.83
2018-05-21T15:15:47.420Z,96572.63
2018-05-21T15:18:14.886Z,96572.52
2018-05-21T15:20:42.390Z,96570.16
2018-05-21T15:23:09.846Z,96573.51
2018-05-21T15:25:39.572Z,96567.83
2018-05-21T15:28:07.003Z,96561.62
2018-05-21T15:30:34.417Z,96567.59
2018-05-21T15:33:02.429Z,96568.41
2018-05-21T15:35:29.888Z,96561.86
2018-05-21T15:37:57.561Z,96562.41
2018-05-21T15:40:25.001Z,96556.09
2018-05-21T15:42:52.427Z,96559.41
2018-05-21T15:45:21.023Z,96558.05
2018-05-21T15:47:48.475Z,96554.44
2018-05-21T15:50:16.549Z,96561.16
2018-05-21T15:52:44.260Z,96555.69
2018-05-21T15:55:12.570Z,96553.32
2018-05-21T15:57:40.040Z,96551.96
2018-05-21T16:00:07.484Z,96558.38
2018-05-21T16:02:34.992Z,96560.14
2018-05-21T16:05:05.777Z,96559.91
2018-05-21T16:07:33.345Z,96560.13
2018-05-21T16:10:01.003Z,96555.16
2018-05-21T16:12:28.466Z,96558.04
2018-05-21T16:14:56.630Z,96549.87
2018-05-21T16:17:24.040Z,96554.34
2018-05-21T16:19:51.477Z,96555.59
2018-05-21T16:22:18.954Z,96555.56
2018-05-21T16:24:46.388Z,96550.30
2018-05-21T16:27:13.842Z,96557.13
2018-05-21T16:29:41.325Z,96555.25
2018-05-21T16:32:08.738Z,96557.30
2018-05-21T16:34:36.240Z,96548.87
2018-05-21T16:37:12.482Z,96550.33
2018-05-21T16:39:39.967Z,96553.94
2018-05-21T16:42:07.419Z,96548.95
2018-05-21T16:44:34.864Z,96555.17
2018-05-21T16:47:02.294Z,96560.73
2018-05-21T16:49:29.796Z,96557.02
2018-05-21T16:51:57.291Z,96558.96
2018-05-21T16:54:24.783Z,96563.91
2018-05-21T16:56:52.227Z,96562.87
2018-05-21T16:59:19.653Z,96566.23
2018-05-21T17:01:47.101Z,96563.81
2018-05-21T17:04:14.529Z,96562.37
2018-05-21T17:06:41.997Z,96567.89
2018-05-21T17:09:09.544Z,96566.80
2018-05-21T17:11:36.978Z,96565.39
2018-05-21T17:14:04.482Z,96576.78
2018-05-21T17:16:31.790Z,96576.42
2018-05-21T17:18:59.280Z,96575.16
2018-05-21T17:21:26.781Z,96575.56
2018-05-21T17:23:54.811Z,96576.02
2018-05-21T17:26:22.242Z,96577.24
2018-05-21T17:28:49.786Z,96576.31
2018-05-21T17:31:17.223Z,96584.61
2018-05-21T17:33:44.731Z,96583.69
2018-05-21T17:36:12.182Z,96582.75
2018-05-21T17:38:40.320Z,96582.14
2018-05-21T17:41:07.772Z,96583.51
2018-05-21T17:43:35.226Z,96586.55
2018-05-21T17:46:02.706Z,96585.92
2018-05-21T17:48:31.069Z,96591.06
2018-05-21T17:50:58.456Z,96591.55
2018-05-21T17:53:25.886Z,96593.83
2018-05-21T17:55:53.408Z,96588.41
2018-05-21T17:58:21.002Z,96597.63
2018-05-21T18:00:48.510Z,96593.48
2018-05-21T18:03:16.004Z,96598.39
2018-05-21T18:05:47.128Z,96597.59
2018-05-21T18:08:15.954Z,96594.72
2018-05-21T18:10:43.621Z,96600.06
2018-05-21T18:13:11.119Z,96602.45
2018-05-21T18:15:38.648Z,96597.27
2018-05-21T18:18:06.100Z,96602.84
2018-05-21T18:20:33.589Z,96598.80
2018-05-21T18:23:01.075Z,96598.55
2018-05-21T18:25:28.556Z,96598.44
2018-05-21T18:27:56.023Z,96598.83
2018-05-21T18:30:23.453Z,96604.28
2018-05-21T18:32:50.917Z,96605.09
2018-05-21T18:35:18.416Z,96604.17
2018-05-21T18:37:45.885Z,96606.88
2018-05-21T18:40:13.296Z,96610.02
2018-05-21T18:42:40.829Z,96610.26
2018-05-21T18:45:09.645Z,96610.94
2018-05-21T18:47:37.451Z,96606.75
2018-05-21T18:50:06.095Z,96608.70
2018-05-21T18:52:33.603Z,96607.27
2018-05-21T18:55:01.032Z,96608.73
2018-05-21T18:57:28.466Z,96609.20
2018-05-21T18:59:56.090Z,96605.95
2018-05-21T19:02:23.593Z,96609.91
2018-05-21T19:04:51.840Z,96606.22
2018-05-21T19:07:19.418Z,96604.38
2018-05-21T19:09:47.240Z,96598.80
2018-05-21T19:12:14.703Z,96606.27
2018-05-21T19:14:42.207Z,96603.84
2018-05-21T19:17:09.746Z,96603.61
2018-05-21T19:19:38.896Z,96601.90
2018-05-21T19:22:06.424Z,96603.76
2018-05-21T19:24:33.863Z,96602.95
2018-05-21T19:27:02.300Z,96611.48
2018-05-21T19:29:29.869Z,96613.06
2018-05-21T19:31:58.318Z,96618.55
2018-05-21T19:36:58.279Z,96625.86
2018-05-21T19:39:25.790Z,96630.03
2018-05-21T19:41:53.272Z,96633.63
2018-05-21T19:44:20.723Z,96634.69
2018-05-21T19:46:48.191Z,96633.77
2018-05-21T19:49:15.628Z,96638.26
2018-05-21T19:51:43.059Z,96634.98
2018-05-21T19:54:10.509Z,96636.95
2018-05-21T19:56:39.118Z,96632.81
2018-05-21T19:59:07.254Z,96639.83
2018-05-21T20:01:34.753Z,96639.00
2018-05-21T20:04:03.517Z,96642.39
2018-05-21T20:06:30.968Z,96646.08
2018-05-21T20:08:58.367Z,96645.31
2018-05-21T20:11:25.809Z,96650.64
2018-05-21T20:13:53.231Z,96649.56
2018-05-21T20:16:20.644Z,96647.50
2018-05-21T20:18:48.104Z,96649.16
2018-05-21T20:21:15.584Z,96647.25
2018-05-21T20:23:43.095Z,96649.67
2018-05-21T20:26:11.502Z,96648.91
2018-05-21T20:28:38.945Z,96650.83
2018-05-21T20:31:06.376Z,96647.02
2018-05-21T20:33:33.836Z,96654.05
2018-05-21T20:36:01.322Z,96651.55
2018-05-21T20:38:28.788Z,96654.15
2018-05-21T20:40:58.014Z,96657.16
2018-05-21T20:43:25.619Z,96657.67
2018-05-21T20:45:53.756Z,96660.49
2018-05-21T20:48:21.201Z,96664.14
2018-05-21T20:50:48.596Z,96661.56
2018-05-21T20:53:16.070Z,96675.20
2018-05-21T20:55:44.522Z,96669.78
2018-05-21T20:58:11.948Z,96667.11
2018-05-21T21:00:39.454Z,96665.81
2018-05-21T21:03:10.727Z,96671.87
2018-05-21T21:05:38.331Z,96666.48
2018-05-21T21:08:05.728Z,96669.55
2018-05-21T21:10:33.188Z,96669.97
2018-05-21T21:13:00.604Z,96667.09
2018-05-21T21:15:28.198Z,96669.59
2018-05-21T21:17:55.668Z,96673.73
2018-05-21T21:20:23.103Z,96673.42
2018-05-21T21:22:50.586Z,96673.67
2018-05-21T21:25:17.992Z,96667.94
2018-05-21T21:27:45.441Z,96670.16
2018-05-21T21:30:12.835Z,96670.25
2018-05-21T21:32:40.305Z,96671.20
2018-05-21T21:35:07.734Z,96677.16
2018-05-21T21:37:35.137Z,96682.32
2018-05-21T21:40:04.487Z,96676.10
2018-05-21T21:42:31.976Z,96681.92
2018-05-21T21:44:59.460Z,96677.59
2018-05-21T21:47:26.923Z,96674.27
2018-05-21T21:49:54.388Z,96688.13
2018-05-21T21:52:21.853Z,96682.30
2018-05-21T21:54:50.212Z,96681.70
2018-05-21T21:57:17.661Z,96684.63
2018-05-21T21:59:45.131Z,96679.05
2018-05-21T22:02:13.665Z,96682.78
2018-05-21T22:04:42.305Z,96684.12
2018-05-21T22:07:10.497Z,96688.03
2018-05-21T22:09:37.938Z,96686.44
2018-05-21T22:12:05.331Z,96690.52
2018-05-21T22:14:32.792Z,96687.28
2018-05-21T22:17:00.230Z,96691.58
2018-05-21T22:19:27.675Z,96708.86
2018-05-21T22:21:55.105Z,96708.30
2018-05-21T22:24:22.904Z,96720.17
2018-05-21T22:26:50.312Z,96722.86
2018-05-21T22:29:17.764Z,96725.57
2018-05-21T22:31:45.276Z,96723.83
2018-05-21T22:34:12.716Z,96717.79
2018-05-21T22:36:40.169Z,96714.48
2018-05-21T22:39:07.624Z,96712.52
2018-05-21T22:41:35.010Z,96716.69
2018-05-21T22:44:02.451Z,96717.34
2018-05-21T22:46:29.919Z,96722.47
2018-05-21T22:48:57.352Z,96726.36
2018-05-21T22:51:24.961Z,96722.23
2018-05-21T22:53:52.440Z,96718.23
2018-05-21T22:56:19.925Z,96710.41
2018-05-21T22:58:47.363Z,96715.55
2018-05-21T23:01:14.913Z,96715.47
2018-05-21T23:03:42.308Z,96707.95
2018-05-21T23:06:12.712Z,96711.94
2018-05-21T23:08:40.212Z,96710.61
2018-05-21T23:11:07.633Z,96715.09
2018-05-21T23:13:35.083Z,96715.20
2018-05-21T23:16:02.546Z,96717.16
2018-05-21T23:18:30.025Z,96721.94
2018-05-21T23:20:57.485Z,96721.53
2018-05-21T23:23:25.035Z,96714.56
2018-05-21T23:25:52.462Z,96719.45
2018-05-21T23:28:19.921Z,96726.52
2018-05-21T23:30:47.394Z,96720.61
2018-05-21T23:33:14.820Z,96720.05
2018-05-21T23:35:42.293Z,96726.44
2018-05-21T23:38:11.062Z,96721.72
2018-05-21T23:40:38.470Z,96718.63
2018-05-21T23:43:05.932Z,96714.64
2018-05-21T23:45:33.418Z,96717.42
2018-05-21T23:48:01.050Z,96712.45
2018-05-21T23:50:28.516Z,96723.14
2018-05-21T23:52:55.995Z,96716.09
2018-05-21T23:55:23.470Z,96715.64
2018-05-21T23:57:50.900Z,96718.01
